Centerville, Kansas
Current Conditions -  °F | °C
As of 6:53 PM on Friday 19 Dec 2014 (Local Time) from KIXD Reporting Station
Haze Haze  
Wind Chill: 32°   Ceiling: 800
Heat Index: 32°   Visibility: 5mi
Dew Point: 31°   Wind: 0mph
Humidity: 96%   Direction: NA
Pressure: 30.2"   Gusts: NA
Location:  38.22°N, 95.01°W
Report Text: KIXD 200053Z 00000KT 5SM BR OVC008 00/M01 A3020 RMK AO2 SLP236 T00001006
Loading
Personal Weather Stations






























Interactive Weather Map New forecast layout! Learn more

10-Day Weather Forecast

Advertisements
Track Severe Weather on mobile